MST,Max TemperatureF,Mean TemperatureF,Min TemperatureF,Max Dew PointF,MeanDew PointF,Min DewpointF,Max Humidity, Mean Humidity, Min Humidity, Max Sea Level PressureIn, Mean Sea Level PressureIn, Min Sea Level PressureIn, Max VisibilityMiles, Mean VisibilityMiles, Min VisibilityMiles, Max Wind SpeedMPH, Mean Wind SpeedMPH, Max Gust SpeedMPH,PrecipitationIn, CloudCover, Events, WindDirDegrees
2010-11-1,87,72,57,40,35,32,44,29,14,30.17,30.12,30.08,10,10,10,17,7,21,0.00,0,,342
2010-11-2,92,78,63,35,29,23,34,22,10,30.18,30.09,30.01,10,10,10,18,7,21,0.00,0,,360
2010-11-3,96,82,67,37,31,26,26,18,9,30.10,30.04,29.99,10,10,10,18,9,24,0.00,0,,34
2010-11-4,93,80,66,37,34,29,34,22,10,30.08,30.00,29.93,10,10,10,23,7,26,0.00,1,,57
2010-11-5,89,77,65,54,36,31,37,25,12,30.00,29.94,29.88,10,10,10,10,3,14,0.00,1,,33
2010-11-6,88,74,60,55,43,34,68,42,15,30.03,29.97,29.93,10,10,10,14,6,22,0.00,3,,151
2010-11-7,82,70,57,47,41,34,67,42,17,30.07,29.99,29.92,10,10,10,14,3,18,0.00,1,,323
2010-11-8,78,68,58,58,45,35,90,59,27,29.92,29.87,29.81,10,10,10,23,11,30,0.00,1,,291
2010-11-9,74,62,50,41,28,19,59,36,13,30.04,29.96,29.90,10,10,10,16,5,22,0.00,0,,345
2010-11-10,77,61,45,42,30,20,49,31,12,29.96,29.90,29.82,10,10,10,16,5,20,0.00,0,,244
2010-11-11,74,64,53,39,27,22,55,35,14,30.24,30.09,29.92,10,10,9,26,11,37,0.00,0,,7
2010-11-12,74,63,52,27,22,18,30,22,13,30.35,30.26,30.19,10,10,10,18,9,23,0.00,0,,358
2010-11-13,77,62,47,25,20,17,39,25,11,30.20,30.11,30.01,10,10,10,20,7,24,0.00,0,,345
2010-11-14,79,67,55,31,25,21,32,23,13,30.03,29.97,29.91,10,10,10,21,9,29,0.00,0,,335
2010-11-15,83,67,51,41,35,29,48,33,18,30.01,29.95,29.91,10,10,10,8,1,10,0.00,0,,172
2010-11-16,82,67,51,56,46,39,67,45,23,30.01,29.94,29.85,10,10,10,12,5,14,0.00,0,,161
2010-11-17,82,69,56,48,42,37,67,44,21,30.10,30.04,29.92,10,10,10,13,5,16,0.00,0,,33
2010-11-18,83,69,54,43,37,29,61,38,15,30.10,30.03,29.95,10,10,10,13,3,15,0.00,0,,33
2010-11-19,80,67,53,53,39,30,72,45,17,29.97,29.89,29.81,10,10,10,15,5,18,0.00,2,,100
2010-11-20,73,66,59,54,44,40,78,56,33,29.93,29.86,29.81,10,10,10,17,8,23,0.00,1,,246
2010-11-21,73,64,54,50,42,31,83,56,29,30.04,29.93,29.85,10,10,9,23,8,35,0.00,2,,275
2010-11-22,66,57,48,33,31,27,52,38,24,30.17,30.10,30.05,10,10,10,20,8,25,0.00,0,,288
2010-11-23,65,54,42,36,33,30,65,48,30,30.09,30.01,29.93,10,10,10,12,4,16,0.00,3,,232
2010-11-24,67,57,47,40,35,29,65,47,29,29.95,29.90,29.84,10,10,10,17,8,22,0.00,1,,270
2010-11-25,60,54,47,17,-1,-8,41,24,6,30.28,30.16,29.96,10,10,10,23,12,30,0.00,0,,360
2010-11-26,65,54,42,11,0,-6,25,16,7,30.30,30.20,30.09,10,10,10,17,9,24,0.00,0,,353
2010-11-27,67,52,37,17,8,0,35,21,7,30.07,29.94,29.82,10,10,10,14,4,17,0.00,0,,17
2010-11-28,65,55,44,35,25,17,50,33,16,30.03,29.89,29.80,10,10,10,21,9,26,0.00,0,,304
2010-11-29,61,50,38,26,10,4,49,30,10,30.42,30.26,30.05,10,10,9,23,9,32,0.00,0,,351
2010-11-30,64,50,35,17,12,8,47,30,12,30.49,30.39,30.30,10,10,10,14,5,16,0.00,1,,8